• Join FlightAware (Why Join?)
  • Login
  • US Flag 
11:15AM EDT


 

Airport Tracker/Info


-or-


 

Live Flight TrackerFlight Track Log ✈ EGF4449 ✈ 11-Jun-2013 ✈ KJFK - KDCA

Flight Track Log - Related Links

Times and Time Zones

All times are in EDT time to prevent confusion due to time zone crossing. See the EGF4449 flight status page for this flight to view local times or setup timezone preferences in your user account.

Time Position Orientation Groundspeed Altitude Reporting Facility
EDT Latitude Longitude Course Direction KTS MPH feet Rate Location/Type
09:33PM 40.6333 -73.8333 217° Southwest 159 183 2,000  Level New York TRACON
09:35PM 40.3881 -73.5380 143° Southeast  Level FlightAware Approximate
09:35PM 40.5514 -73.7428 140° Southeast 196 226 6,400  Level New York Center
09:36PM 40.3073 -73.4573 143° Southeast  Level FlightAware Approximate
09:36PM 40.4908 -73.6636 135° Southeast 282 325 9,000  Level New York Center
09:37PM 40.2266 -73.3766 143° Southeast  Level FlightAware Approximate
09:37PM 40.4239 -73.5928 141° Southeast 312 359 11,100  Level New York Center
09:38PM 40.1434 -73.3012 153° Southeast  Level FlightAware Approximate
09:38PM 40.3486 -73.5133 141° Southeast 344 396 12,600  Level New York Center
09:39PM 40.0599 -73.3401 217° Southwest  Level FlightAware Approximate
09:39PM 40.2650 -73.4311 143° Southeast 363 418 14,200  Level New York Center
09:40PM 40.1750 -73.4522 190° South 326 375 15,900 900 Climbing New York Center
09:41PM 40.0864 -73.5031 204° Southwest 356 410 16,100  Climbing New York Center
09:42PM 39.9908 -73.5669 207° Southwest 369 425 16,000 -60 Descending New York Center
09:43PM 39.8956 -73.6308 207° Southwest 379 436 16,000  Level New York Center
09:44PM 39.8064 -73.6947 209° Southwest 384 442 16,000  Level New York Center
09:45PM 39.7500 -73.7867 231° Southwest 364 419 16,000  Level New York Center
09:46PM 39.6928 -73.8711 229° Southwest 360 414 16,000  Level Washington Center
09:47PM 39.6358 -73.9667 232° Southwest 375 432 16,000 -60 Level Washington Center
09:48PM 39.5703 -74.0678 230° Southwest 381 438 15,900 -60 Descending Washington Center
09:49PM 39.5072 -74.1767 233° Southwest 381 438 15,900  Level Washington Center
09:50PM 39.4628 -74.2958 244° Southwest 381 438 15,900  Level Washington Center
09:51PM 39.4161 -74.4178 244° Southwest 381 438 15,900  Level Washington Center
09:52PM 39.3692 -74.5367 243° Southwest 375 432 15,900  Level Washington Center
09:53PM 39.3222 -74.6553 243° Southwest 369 425 15,900  Level Washington Center
09:54PM 39.2753 -74.7767 243° Southwest 375 432 15,900 -240 Level Washington Center
09:55PM 39.2258 -74.8950 242° Southwest 375 432 15,500 -720 Descending Washington Center
09:56PM 39.1786 -75.0158 243° Southwest 380 437 14,500 -840 Descending Washington Center
09:57PM 39.1311 -75.1367 243° Southwest 375 432 13,900 -540 Descending Washington Center
09:58PM 39.0817 -75.2600 243° Southwest 369 425 13,500 -540 Descending Washington Center
09:59PM 39.0361 -75.3778 244° Southwest 369 425 12,900 -600 Descending Washington Center
10:00PM 38.9903 -75.4903 242° Southwest 369 425 12,300 -600 Descending Washington Center
10:01PM 38.9467 -75.5997 243° Southwest 369 425 11,700 -600 Descending Washington Center
10:02PM 38.9008 -75.7117 242° Southwest 363 418 11,200 -420 Descending Washington Center
10:03PM 38.8525 -75.8236 241° Southwest 363 418 10,900 -120 Descending Washington Center
10:04PM 38.8064 -75.9381 243° Southwest 363 418 11,000  Climbing Washington Center
10:05PM 38.7603 -76.0522 243° Southwest 368 423 11,000 -120 Level Washington Center
10:06PM 38.7575 -76.1772 268° West 355 409 10,800 -360 Descending Washington Center
10:07PM 38.7694 -76.3000 277° West 350 403 10,300 -420 Descending Washington Center
10:08PM 38.7811 -76.4197 277° West 344 396 10,000 -240 Descending Washington Center
10:08PM 38.7833 -76.4500 275° West 299 344 10,000  Level Potomac TRACON
10:09PM 38.8000 -76.5500 282° West 262 302 10,000 -420 Level Potomac TRACON
10:10PM 38.8000 -76.6333 270° West 259 298 9,200 -1,260 Descending Potomac TRACON
10:11PM 38.8000 -76.7333 270° West 262 302 7,700 -1,680 Descending Potomac TRACON
10:12PM 38.7667 -76.8167 243° Southwest 281 323 6,100 -1,380 Descending Potomac TRACON
10:14PM 38.8280 -76.9755 311° West  Level Estimated
10:14PM 38.6833 -76.9500 311° West 211 243 3,600  Level Potomac TRACON